createdAt,value
2019-04-16T00:00:35.415Z,1.84
2019-04-16T00:03:02.981Z,3.34
2019-04-16T00:05:31.773Z,3.29
2019-04-16T00:08:00.818Z,3.25
2019-04-16T00:10:29.528Z,3.19
2019-04-16T00:13:04.276Z,3.13
2019-04-16T00:15:31.716Z,3.10
2019-04-16T00:17:59.083Z,3.05
2019-04-16T00:20:26.120Z,3.01
2019-04-16T00:22:55.112Z,2.98
2019-04-16T00:25:22.887Z,2.96
2019-04-16T00:27:50.414Z,2.95
2019-04-16T00:30:17.885Z,2.94
2019-04-16T00:32:45.482Z,2.91
2019-04-16T00:35:15.395Z,2.91
2019-04-16T00:37:41.942Z,2.88
2019-04-16T00:40:08.915Z,1.27
2019-04-16T00:42:35.928Z,2.84
2019-04-16T00:45:03.736Z,2.82
2019-04-16T00:47:31.586Z,2.77
2019-04-16T00:49:59.646Z,2.75
2019-04-16T00:52:27.397Z,2.72
2019-04-16T00:54:54.541Z,2.70
2019-04-16T00:57:21.566Z,2.69
2019-04-16T00:59:49.328Z,2.67
2019-04-16T01:02:16.594Z,2.63
2019-04-16T01:04:43.506Z,2.60
2019-04-16T01:07:10.446Z,2.57
2019-04-16T01:09:38.222Z,2.53
2019-04-16T01:12:05.342Z,2.49
2019-04-16T01:14:32.934Z,2.47
2019-04-16T01:17:04.078Z,2.42
2019-04-16T01:19:29.593Z,2.38
2019-04-16T01:21:57.583Z,2.36
2019-04-16T01:24:24.435Z,2.34
2019-04-16T01:26:52.176Z,0.73
2019-04-16T01:29:19.058Z,2.23
2019-04-16T01:32:04.583Z,2.20
2019-04-16T01:34:39.665Z,2.15
2019-04-16T01:37:08.587Z,2.13
2019-04-16T01:39:40.902Z,2.12
2019-04-16T01:42:07.868Z,2.06
2019-04-16T01:44:34.854Z,2.09
2019-04-16T01:47:04.285Z,2.08
2019-04-16T01:49:31.020Z,2.08
2019-04-16T01:51:57.972Z,2.07
2019-04-16T01:54:25.988Z,2.07
2019-04-16T01:56:52.845Z,2.07
2019-04-16T01:59:19.726Z,2.07
2019-04-16T02:01:46.594Z,2.05
2019-04-16T02:04:13.671Z,2.04
2019-04-16T02:06:40.664Z,2.03
2019-04-16T02:09:16.078Z,2.04
2019-04-16T02:11:38.827Z,2.00
2019-04-16T02:14:07.707Z,1.99
2019-04-16T02:16:34.667Z,1.95
2019-04-16T02:19:03.688Z,1.94
2019-04-16T02:21:31.545Z,1.90
2019-04-16T02:23:59.380Z,1.85
2019-04-16T02:26:26.475Z,1.81
2019-04-16T02:28:53.275Z,1.74
2019-04-16T02:31:21.026Z,1.70
2019-04-16T02:33:48.734Z,1.63
2019-04-16T02:36:16.176Z,1.60
2019-04-16T02:38:52.389Z,1.57
2019-04-16T02:41:12.750Z,1.54
2019-04-16T02:43:40.860Z,1.50
2019-04-16T02:46:09.111Z,1.50
2019-04-16T02:48:36.842Z,1.44
2019-04-16T02:51:08.730Z,1.49
2019-04-16T02:53:40.383Z,1.44
2019-04-16T02:56:26.267Z,1.44
2019-04-16T02:59:09.999Z,1.41
2019-04-16T03:01:45.097Z,1.35
2019-04-16T03:04:14.588Z,1.30
2019-04-16T03:06:41.889Z,1.25
2019-04-16T03:09:09.944Z,1.25
2019-04-16T03:11:37.378Z,1.23
2019-04-16T03:14:04.970Z,1.24
2019-04-16T03:16:46.307Z,1.23
2019-04-16T03:19:19.063Z,1.22
2019-04-16T03:21:44.544Z,1.19
2019-04-16T03:24:11.972Z,1.19
2019-04-16T03:26:39.308Z,1.17
2019-04-16T03:29:06.997Z,1.10
2019-04-16T03:31:34.644Z,1.04
2019-04-16T03:34:02.518Z,1.04
2019-04-16T03:36:30.475Z,0.95
2019-04-16T03:38:58.642Z,0.95
2019-04-16T03:41:26.617Z,0.93
2019-04-16T03:43:54.325Z,0.91
2019-04-16T03:46:21.355Z,0.87
2019-04-16T03:48:48.879Z,0.80
2019-04-16T03:51:15.953Z,0.80
2019-04-16T03:53:46.440Z,0.70
2019-04-16T03:56:12.833Z,0.67
2019-04-16T03:58:40.523Z,0.67
2019-04-16T04:01:07.509Z,0.74
2019-04-16T04:03:34.592Z,0.74
2019-04-16T04:06:03.518Z,0.74
2019-04-16T04:08:31.345Z,0.74
2019-04-16T04:10:58.946Z,0.75
2019-04-16T04:13:25.730Z,0.76
2019-04-16T04:15:55.016Z,0.77
2019-04-16T04:18:22.719Z,0.73
2019-04-16T04:20:50.932Z,0.73
2019-04-16T04:23:18.182Z,0.73
2019-04-16T04:25:45.071Z,0.73
2019-04-16T04:28:11.854Z,0.76
2019-04-16T04:30:39.138Z,0.76
2019-04-16T04:33:08.638Z,0.72
2019-04-16T04:35:34.935Z,0.71
2019-04-16T04:38:04.132Z,0.71
2019-04-16T04:40:43.883Z,-0.23
2019-04-16T04:43:01.630Z,0.84
2019-04-16T04:45:29.419Z,0.84
2019-04-16T04:47:56.580Z,0.86
2019-04-16T04:50:23.569Z,0.84
2019-04-16T04:52:50.907Z,0.84
2019-04-16T04:55:18.542Z,0.83
2019-04-16T04:57:46.427Z,0.84
2019-04-16T05:00:13.447Z,0.84
2019-04-16T05:02:43.681Z,0.84
2019-04-16T05:05:25.570Z,0.84
2019-04-16T05:07:52.674Z,0.85
2019-04-16T05:10:20.111Z,0.93
2019-04-16T05:12:47.360Z,0.93
2019-04-16T05:15:14.906Z,1.01
2019-04-16T05:17:42.086Z,1.06
2019-04-16T05:20:09.237Z,1.06
2019-04-16T05:22:36.429Z,0.17
2019-04-16T05:25:04.369Z,1.19
2019-04-16T05:27:31.332Z,1.19
2019-04-16T05:29:58.665Z,1.23
2019-04-16T05:32:32.976Z,1.25
2019-04-16T05:34:55.212Z,1.30
2019-04-16T05:37:22.710Z,1.35
2019-04-16T05:39:50.093Z,1.38
2019-04-16T05:42:17.032Z,1.45
2019-04-16T05:44:45.418Z,1.52
2019-04-16T05:47:16.761Z,1.61
2019-04-16T05:49:42.483Z,0.12
2019-04-16T05:52:09.374Z,0.12
2019-04-16T05:54:54.372Z,1.64
2019-04-16T05:57:26.511Z,1.81
2019-04-16T05:59:52.464Z,1.81
2019-04-16T06:02:39.987Z,1.87
2019-04-16T06:05:07.639Z,2.06
2019-04-16T06:07:37.787Z,2.06
2019-04-16T06:10:07.370Z,2.18
2019-04-16T06:12:39.604Z,2.30
2019-04-16T06:15:26.482Z,2.46
2019-04-16T06:18:12.245Z,2.56
2019-04-16T06:20:44.048Z,2.68
2019-04-16T06:23:13.195Z,2.72
2019-04-16T06:25:42.147Z,2.76
2019-04-16T06:28:11.290Z,1.51
2019-04-16T06:30:46.261Z,2.85
2019-04-16T06:33:18.164Z,2.91
2019-04-16T06:35:56.392Z,2.96
2019-04-16T06:38:28.503Z,3.02
2019-04-16T06:41:04.082Z,3.10
2019-04-16T06:43:45.334Z,3.17
2019-04-16T06:46:19.690Z,3.27
2019-04-16T06:48:50.808Z,3.37
2019-04-16T06:51:37.479Z,3.47
2019-04-16T06:54:06.191Z,3.55
2019-04-16T06:56:51.205Z,3.63
2019-04-16T06:59:26.609Z,3.79
2019-04-16T07:02:02.844Z,3.87
2019-04-16T07:04:31.900Z,3.96
2019-04-16T07:07:21.583Z,4.08
2019-04-16T07:09:50.351Z,4.16
2019-04-16T07:12:19.165Z,4.41
2019-04-16T07:14:48.521Z,4.70
2019-04-16T07:17:17.863Z,5.00
2019-04-16T07:19:44.562Z,5.31
2019-04-16T07:22:12.591Z,5.57
2019-04-16T07:24:39.930Z,5.88
2019-04-16T07:27:07.713Z,6.14
2019-04-16T07:29:46.126Z,5.02
2019-04-16T07:32:29.477Z,6.81
2019-04-16T07:35:16.147Z,7.10
2019-04-16T07:38:04.919Z,5.97
2019-04-16T07:40:33.226Z,7.70
2019-04-16T07:43:02.737Z,8.00
2019-04-16T07:45:37.451Z,8.29
2019-04-16T07:48:06.983Z,8.69
2019-04-16T07:50:53.069Z,8.91
2019-04-16T07:53:38.042Z,9.11
2019-04-16T07:56:19.284Z,9.36
2019-04-16T07:58:46.035Z,9.54
2019-04-16T08:01:16.275Z,9.79
2019-04-16T08:03:42.056Z,9.89
2019-04-16T08:06:10.696Z,9.90
2019-04-16T08:08:37.846Z,9.80
2019-04-16T08:11:05.686Z,8.50
2019-04-16T08:13:34.590Z,9.94
2019-04-16T08:16:01.668Z,10.09
2019-04-16T08:18:28.738Z,10.38
2019-04-16T08:21:02.000Z,9.51
2019-04-16T08:23:32.516Z,10.94
2019-04-16T08:26:04.166Z,11.03
2019-04-16T08:28:30.043Z,11.23
2019-04-16T08:30:57.316Z,11.38
2019-04-16T08:33:28.201Z,11.49
2019-04-16T08:35:53.229Z,11.61
2019-04-16T08:38:20.391Z,11.78
2019-04-16T08:40:47.467Z,11.80
2019-04-16T08:43:14.443Z,11.91
2019-04-16T08:45:41.807Z,12.14
2019-04-16T08:48:09.802Z,12.34
2019-04-16T08:50:37.424Z,12.54
2019-04-16T08:53:04.244Z,12.79
2019-04-16T08:55:31.190Z,13.07
2019-04-16T08:57:58.131Z,13.24
2019-04-16T09:00:25.286Z,13.28
2019-04-16T09:02:52.229Z,13.49
2019-04-16T09:05:19.352Z,13.80
2019-04-16T09:07:50.730Z,14.19
2019-04-16T09:10:23.076Z,14.51
2019-04-16T09:12:50.981Z,14.67
2019-04-16T09:15:17.078Z,14.87
2019-04-16T09:17:46.526Z,15.10
2019-04-16T09:20:15.561Z,15.33
2019-04-16T09:22:49.395Z,15.51
2019-04-16T09:25:30.329Z,15.64
2019-04-16T09:28:00.772Z,15.89
2019-04-16T09:30:46.718Z,15.99
2019-04-16T09:33:30.395Z,16.08
2019-04-16T09:36:17.950Z,16.27
2019-04-16T09:38:46.761Z,16.24
2019-04-16T09:41:18.581Z,16.17
2019-04-16T09:43:57.106Z,16.31
2019-04-16T09:46:48.867Z,16.49
2019-04-16T09:48:54.297Z,16.59
2019-04-16T09:51:21.505Z,16.75
2019-04-16T09:53:49.114Z,16.91
2019-04-16T09:56:29.172Z,16.95
2019-04-16T09:58:57.526Z,17.08
2019-04-16T10:01:26.686Z,17.17
2019-04-16T10:03:54.693Z,17.18
2019-04-16T10:06:21.611Z,17.31
2019-04-16T10:08:48.564Z,17.42
2019-04-16T10:11:18.575Z,17.42
2019-04-16T10:13:45.785Z,17.52
2019-04-16T10:16:14.346Z,17.56
2019-04-16T10:18:41.379Z,17.64
2019-04-16T10:21:08.761Z,17.60
2019-04-16T10:23:43.702Z,17.73
2019-04-16T10:26:11.008Z,17.76
2019-04-16T10:28:39.692Z,17.83
2019-04-16T10:31:06.671Z,17.98
2019-04-16T10:33:33.517Z,18.10
2019-04-16T10:36:01.158Z,18.22
2019-04-16T10:38:47.376Z,18.35
2019-04-16T10:41:16.243Z,18.34
2019-04-16T10:43:57.180Z,18.18
2019-04-16T10:46:28.894Z,18.15
2019-04-16T10:49:06.409Z,18.27
2019-04-16T10:51:39.179Z,18.33
2019-04-16T10:54:20.043Z,18.51
2019-04-16T10:57:03.774Z,18.59
2019-04-16T10:59:35.637Z,18.56
2019-04-16T11:02:21.106Z,18.65
2019-04-16T11:04:49.781Z,18.92
2019-04-16T11:07:21.530Z,19.12
2019-04-16T11:09:48.985Z,19.24
2019-04-16T11:12:19.653Z,19.39
2019-04-16T11:14:45.923Z,19.51
2019-04-16T11:17:12.838Z,19.55
2019-04-16T11:19:40.229Z,19.60
2019-04-16T11:22:07.199Z,19.62
2019-04-16T11:24:34.190Z,19.63
2019-04-16T11:27:01.204Z,19.82
2019-04-16T11:29:28.560Z,19.96
2019-04-16T11:31:55.950Z,20.06
2019-04-16T11:34:22.902Z,20.10
2019-04-16T11:36:49.882Z,20.14
2019-04-16T11:39:17.208Z,20.16
2019-04-16T11:41:51.282Z,20.01
2019-04-16T11:44:19.409Z,19.99
2019-04-16T11:46:47.547Z,20.09
2019-04-16T11:49:14.399Z,20.17
2019-04-16T11:51:41.846Z,20.18
2019-04-16T11:54:11.805Z,20.28
2019-04-16T11:56:38.508Z,20.30
2019-04-16T11:59:06.004Z,20.44
2019-04-16T12:01:53.776Z,20.57
2019-04-16T12:04:25.766Z,20.67
2019-04-16T12:07:00.440Z,20.63
2019-04-16T12:09:32.079Z,20.55
2019-04-16T12:12:17.688Z,20.63
2019-04-16T12:14:55.708Z,20.73
2019-04-16T12:17:27.525Z,20.70
2019-04-16T12:20:05.297Z,20.72
2019-04-16T12:22:46.131Z,20.64
2019-04-16T12:25:32.781Z,20.65
2019-04-16T12:28:06.363Z,19.90
2019-04-16T12:30:35.371Z,20.40
2019-04-16T12:33:13.989Z,20.55
2019-04-16T12:35:45.160Z,20.64
2019-04-16T12:38:17.858Z,20.57
2019-04-16T12:40:54.883Z,20.64
2019-04-16T12:43:24.056Z,20.85
2019-04-16T12:45:53.869Z,20.83
2019-04-16T12:48:34.514Z,20.99
2019-04-16T12:51:09.635Z,21.08
2019-04-16T12:53:55.288Z,20.09
2019-04-16T12:56:30.288Z,21.11
2019-04-16T12:59:02.194Z,20.11
2019-04-16T13:01:33.259Z,21.32
2019-04-16T13:04:13.704Z,21.35
2019-04-16T13:06:42.464Z,21.32
2019-04-16T13:09:20.258Z,21.30
2019-04-16T13:11:49.327Z,21.25
2019-04-16T13:14:30.830Z,21.25
2019-04-16T13:17:04.439Z,21.31
2019-04-16T13:19:49.629Z,21.31
2019-04-16T13:22:18.209Z,21.19
2019-04-16T13:24:53.289Z,21.11
2019-04-16T13:27:24.902Z,21.12
2019-04-16T13:29:52.161Z,21.15
2019-04-16T13:32:19.190Z,21.06
2019-04-16T13:34:46.125Z,21.05
2019-04-16T13:37:13.830Z,21.02
2019-04-16T13:39:59.303Z,19.66
2019-04-16T13:42:23.488Z,20.10
2019-04-16T13:44:55.257Z,19.83
2019-04-16T13:47:22.590Z,19.58
2019-04-16T13:49:51.386Z,19.23
2019-04-16T13:52:20.599Z,19.04
2019-04-16T13:54:49.051Z,18.94
2019-04-16T13:57:20.251Z,18.79
2019-04-16T14:00:02.969Z,18.71
2019-04-16T14:02:27.425Z,18.57
2019-04-16T14:04:54.171Z,18.53
2019-04-16T14:07:25.208Z,18.53
2019-04-16T14:09:50.553Z,18.55
2019-04-16T14:12:23.036Z,18.55
2019-04-16T14:14:49.472Z,18.51
2019-04-16T14:17:18.603Z,18.45
2019-04-16T14:19:45.632Z,18.37
2019-04-16T14:22:13.260Z,18.25
2019-04-16T14:24:40.387Z,18.20
2019-04-16T14:27:07.728Z,18.17
2019-04-16T14:29:35.838Z,18.14
2019-04-16T14:32:03.879Z,18.11
2019-04-16T14:34:39.220Z,18.08
2019-04-16T14:37:06.027Z,18.03
2019-04-16T14:39:40.542Z,18.00
2019-04-16T14:42:07.983Z,17.97
2019-04-16T14:44:39.691Z,16.84
2019-04-16T14:47:06.631Z,17.95
2019-04-16T14:49:34.044Z,17.84
2019-04-16T14:52:02.123Z,17.80
2019-04-16T14:54:31.637Z,17.76
2019-04-16T14:57:02.576Z,17.76
2019-04-16T14:59:49.854Z,17.76
2019-04-16T15:02:34.827Z,16.59
2019-04-16T15:05:04.104Z,17.69
2019-04-16T15:07:32.924Z,17.63
2019-04-16T15:10:02.911Z,17.60
2019-04-16T15:12:35.672Z,17.58
2019-04-16T15:15:04.595Z,17.50
2019-04-16T15:17:51.774Z,17.48
2019-04-16T15:20:23.179Z,17.44
2019-04-16T15:22:54.908Z,17.40
2019-04-16T15:25:30.294Z,17.34
2019-04-16T15:28:16.972Z,16.28
2019-04-16T15:31:00.808Z,17.23
2019-04-16T15:33:39.058Z,17.24
2019-04-16T15:36:08.890Z,17.26
2019-04-16T15:38:53.719Z,17.24
2019-04-16T15:41:27.910Z,17.19
2019-04-16T15:44:13.327Z,17.17
2019-04-16T15:46:50.569Z,17.14
2019-04-16T15:49:22.886Z,17.12
2019-04-16T15:52:02.067Z,17.06
2019-04-16T15:54:34.124Z,17.02
2019-04-16T15:57:19.163Z,17.00
2019-04-16T15:59:54.427Z,17.00
2019-04-16T16:02:23.083Z,17.00
2019-04-16T16:04:54.964Z,16.90
2019-04-16T16:07:24.276Z,16.85
2019-04-16T16:09:53.365Z,16.78
2019-04-16T16:12:25.592Z,15.41
2019-04-16T16:14:53.267Z,16.71
2019-04-16T16:17:22.628Z,16.69
2019-04-16T16:19:48.854Z,16.66
2019-04-16T16:22:15.903Z,15.48
2019-04-16T16:24:43.084Z,16.63
2019-04-16T16:27:10.024Z,16.58
2019-04-16T16:29:37.208Z,16.56
2019-04-16T16:32:04.112Z,16.53
2019-04-16T16:34:31.521Z,16.50
2019-04-16T16:36:58.425Z,16.45
2019-04-16T16:39:25.636Z,16.33
2019-04-16T16:41:52.627Z,16.33
2019-04-16T16:44:19.640Z,16.31
2019-04-16T16:46:56.457Z,16.24
2019-04-16T16:49:17.665Z,16.17
2019-04-16T16:51:52.215Z,16.13
2019-04-16T16:54:23.622Z,16.12
2019-04-16T16:57:03.541Z,16.10
2019-04-16T16:59:31.704Z,15.98
2019-04-16T17:02:10.051Z,15.95
2019-04-16T17:04:37.251Z,15.91
2019-04-16T17:07:05.192Z,15.89
2019-04-16T17:09:32.861Z,15.90
2019-04-16T17:11:59.687Z,15.90
2019-04-16T17:14:26.883Z,15.87
2019-04-16T17:16:53.812Z,15.84
2019-04-16T17:19:20.609Z,15.81
2019-04-16T17:21:47.550Z,15.78
2019-04-16T17:24:14.629Z,15.75
2019-04-16T17:26:42.670Z,15.70
2019-04-16T17:29:09.646Z,15.67
2019-04-16T17:31:36.762Z,15.64
2019-04-16T17:34:03.720Z,15.57
2019-04-16T17:36:31.047Z,15.52
2019-04-16T17:38:58.305Z,15.37
2019-04-16T17:41:29.776Z,15.28
2019-04-16T17:44:01.906Z,15.17
2019-04-16T17:46:32.485Z,15.05
2019-04-16T17:49:05.667Z,14.99
2019-04-16T17:51:34.730Z,14.85
2019-04-16T17:54:21.333Z,14.77
2019-04-16T17:56:59.039Z,14.68
2019-04-16T17:59:29.565Z,14.56
2019-04-16T18:02:01.089Z,14.43
2019-04-16T18:04:46.372Z,14.33
2019-04-16T18:07:21.144Z,13.05
2019-04-16T18:09:53.477Z,14.11
2019-04-16T18:12:25.047Z,12.78
2019-04-16T18:15:09.526Z,13.93
2019-04-16T18:17:47.399Z,13.85
2019-04-16T18:20:11.604Z,13.72
2019-04-16T18:22:41.884Z,13.62
2019-04-16T18:25:21.362Z,13.50
2019-04-16T18:27:53.062Z,13.45
2019-04-16T18:30:36.786Z,13.39
2019-04-16T18:33:22.925Z,13.34
2019-04-16T18:35:51.785Z,13.24
2019-04-16T18:38:39.236Z,13.16
2019-04-16T18:41:14.170Z,13.09
2019-04-16T18:43:59.411Z,13.02
2019-04-16T18:46:30.977Z,12.94
2019-04-16T18:49:02.189Z,12.83
2019-04-16T18:51:32.862Z,12.76
2019-04-16T18:53:58.244Z,12.70
2019-04-16T18:56:25.110Z,12.59
2019-04-16T18:58:52.528Z,12.55
2019-04-16T19:01:24.640Z,12.49
2019-04-16T19:03:50.523Z,12.42
2019-04-16T19:06:17.294Z,12.35
2019-04-16T19:08:44.180Z,12.29
2019-04-16T19:11:11.061Z,12.22
2019-04-16T19:13:38.302Z,12.15
2019-04-16T19:16:05.231Z,12.08
2019-04-16T19:18:32.236Z,12.01
2019-04-16T19:20:59.500Z,11.93
2019-04-16T19:23:26.656Z,11.85
2019-04-16T19:25:55.443Z,11.77
2019-04-16T19:28:24.639Z,11.70
2019-04-16T19:30:51.947Z,11.64
2019-04-16T19:33:19.493Z,11.55
2019-04-16T19:35:50.988Z,11.45
2019-04-16T19:38:16.017Z,11.37
2019-04-16T19:40:43.295Z,11.28
2019-04-16T19:43:10.650Z,9.83
2019-04-16T19:45:40.655Z,11.13
2019-04-16T19:48:06.932Z,11.05
2019-04-16T19:50:36.505Z,11.00
2019-04-16T19:53:02.553Z,10.93
2019-04-16T19:55:29.740Z,10.90
2019-04-16T19:57:57.964Z,10.84
2019-04-16T20:00:25.130Z,10.81
2019-04-16T20:02:53.093Z,10.76
2019-04-16T20:05:20.723Z,10.71
2019-04-16T20:07:47.700Z,10.65
2019-04-16T20:10:15.290Z,10.59
2019-04-16T20:12:42.153Z,10.52
2019-04-16T20:15:09.782Z,10.45
2019-04-16T20:17:36.755Z,10.40
2019-04-16T20:20:05.590Z,10.30
2019-04-16T20:22:32.536Z,10.20
2019-04-16T20:24:59.990Z,10.16
2019-04-16T20:27:27.009Z,10.12
2019-04-16T20:29:54.047Z,10.07
2019-04-16T20:32:22.006Z,10.02
2019-04-16T20:34:49.116Z,9.95
2019-04-16T20:37:16.655Z,9.90
2019-04-16T20:39:43.946Z,9.86
2019-04-16T20:42:10.908Z,9.83
2019-04-16T20:44:37.761Z,9.79
2019-04-16T20:47:07.991Z,9.76
2019-04-16T20:49:33.724Z,9.71
2019-04-16T20:52:02.177Z,9.67
2019-04-16T20:54:29.598Z,9.62
2019-04-16T20:56:56.700Z,9.56
2019-04-16T20:59:24.229Z,9.52
2019-04-16T21:01:51.094Z,9.45
2019-04-16T21:04:18.094Z,9.42
2019-04-16T21:06:44.934Z,9.36
2019-04-16T21:09:12.242Z,9.34
2019-04-16T21:11:41.031Z,9.31
2019-04-16T21:14:07.924Z,9.26
2019-04-16T21:16:36.158Z,9.22
2019-04-16T21:19:03.290Z,9.17
2019-04-16T21:21:30.262Z,9.15
2019-04-16T21:23:57.137Z,9.11
2019-04-16T21:26:24.275Z,9.07
2019-04-16T21:28:52.865Z,9.04
2019-04-16T21:31:21.815Z,8.98
2019-04-16T21:33:52.324Z,8.91
2019-04-16T21:36:30.033Z,8.85
2019-04-16T21:39:07.707Z,8.79
2019-04-16T21:41:34.865Z,8.73
2019-04-16T21:44:01.691Z,7.19
2019-04-16T21:46:29.238Z,8.59
2019-04-16T21:48:59.831Z,8.55
2019-04-16T21:51:25.562Z,8.49
2019-04-16T21:53:52.359Z,8.41
2019-04-16T21:56:19.130Z,8.36
2019-04-16T21:58:46.627Z,8.30
2019-04-16T22:01:26.132Z,8.23
2019-04-16T22:03:54.754Z,8.17
2019-04-16T22:06:21.644Z,8.10
2019-04-16T22:08:48.466Z,8.05
2019-04-16T22:11:15.622Z,7.99
2019-04-16T22:13:42.630Z,7.92
2019-04-16T22:16:09.420Z,7.87
2019-04-16T22:18:37.692Z,7.80
2019-04-16T22:21:09.818Z,7.76
2019-04-16T22:23:34.793Z,7.69
2019-04-16T22:26:03.981Z,7.65
2019-04-16T22:28:30.993Z,7.61
2019-04-16T22:30:58.735Z,7.58
2019-04-16T22:33:25.844Z,7.53
2019-04-16T22:35:53.658Z,7.51
2019-04-16T22:38:20.840Z,7.47
2019-04-16T22:41:08.576Z,7.44
2019-04-16T22:43:47.016Z,7.42
2019-04-16T22:46:22.615Z,7.36
2019-04-16T22:48:57.149Z,5.92
2019-04-16T22:51:24.890Z,7.29
2019-04-16T22:53:52.634Z,7.26
2019-04-16T22:56:22.193Z,7.22
2019-04-16T22:58:50.160Z,7.18
2019-04-16T23:01:18.490Z,7.14
2019-04-16T23:03:45.513Z,7.10
2019-04-16T23:06:12.594Z,7.06
2019-04-16T23:08:40.572Z,7.01
2019-04-16T23:11:09.062Z,6.95
2019-04-16T23:13:36.482Z,6.91
2019-04-16T23:16:03.758Z,6.86
2019-04-16T23:18:30.784Z,6.82
2019-04-16T23:20:58.481Z,6.76
2019-04-16T23:23:25.390Z,6.73
2019-04-16T23:25:52.286Z,6.68
2019-04-16T23:28:19.803Z,6.65
2019-04-16T23:30:51.289Z,6.29
2019-04-16T23:33:17.684Z,6.58
2019-04-16T23:35:45.460Z,6.56
2019-04-16T23:38:12.345Z,6.55
2019-04-16T23:40:40.864Z,6.52
2019-04-16T23:43:12.695Z,6.50
2019-04-16T23:55:59.541Z,6.34
2019-04-16T23:58:31.312Z,6.29
